Terminal Aerodrome Forecast
Issued by NWS

Home | Current Version | Previous Version | Graphics & Text | Print | Product List | Glossary On
Versions: 1 2 3 4 5 6 7 8 9 10 11 12 13 14 15 16 17 18 19 20 21 22 23 24 25 26 27 28 29 30 31 32 33 34 35
799
FTUS43 KABR 191727
TAFMBG
TAF
KMBG 191727Z 1918/2018 05018G24KT P6SM BKN060 BKN150
     FM192000 08011KT P6SM SCT200
     FM200500 06007KT P6SM FEW250
     FM201500 11007KT P6SM SCT200=

USA.gov is the U.S. government's official web portal to all federal, state and local government web resources and services.